createdAt,value
2019-01-09T08:00:21.319Z,12.30
2019-01-09T08:01:21.273Z,9.70
2019-01-09T08:02:21.266Z,21.70
2019-01-09T08:03:21.313Z,27.60
2019-01-09T08:04:21.469Z,36.50
2019-01-09T08:05:21.259Z,35.70
2019-01-09T08:06:21.221Z,37.10
2019-01-09T08:07:21.450Z,32.50
2019-01-09T08:08:21.356Z,39.40
2019-01-09T08:09:21.194Z,33.30
2019-01-09T08:10:21.203Z,31.70
2019-01-09T08:11:21.208Z,41.50
2019-01-09T08:12:21.349Z,31.50
2019-01-09T08:13:21.146Z,34.30
2019-01-09T08:14:21.364Z,36.80
2019-01-09T08:15:21.305Z,35.50
2019-01-09T08:16:21.164Z,34.40
2019-01-09T08:17:21.106Z,32.40
2019-01-09T08:18:21.092Z,29.10
2019-01-09T08:19:21.374Z,30.30
2019-01-09T08:20:21.125Z,31.20
2019-01-09T08:21:21.093Z,30.40
2019-01-09T08:22:21.081Z,30.70
2019-01-09T08:23:21.186Z,27.40
2019-01-09T08:24:21.031Z,28.50
2019-01-09T08:25:21.025Z,24.60
2019-01-09T08:26:21.366Z,24.30
2019-01-09T08:27:21.157Z,21.30
2019-01-09T08:28:20.990Z,17.00
2019-01-09T08:29:20.978Z,18.30
2019-01-09T08:30:20.988Z,17.70
2019-01-09T08:31:21.122Z,18.70
2019-01-09T08:32:21.061Z,20.70
2019-01-09T08:33:21.083Z,21.40
2019-01-09T08:34:21.035Z,18.30
2019-01-09T08:35:20.918Z,12.80
2019-01-09T08:36:20.910Z,20.80
2019-01-09T08:37:20.929Z,17.90
2019-01-09T08:38:20.939Z,16.40
2019-01-09T08:39:22.770Z,25.30
2019-01-09T08:40:20.871Z,14.80
2019-01-09T08:41:21.148Z,18.80
2019-01-09T08:42:20.875Z,12.80
2019-01-09T08:43:20.837Z,11.90
2019-01-09T08:44:20.930Z,18.60
2019-01-09T08:45:20.815Z,17.30
2019-01-09T08:46:20.801Z,23.90
2019-01-09T08:47:20.805Z,19.80
2019-01-09T08:48:20.814Z,13.80
2019-01-09T08:49:20.781Z,22.60
2019-01-09T08:50:20.791Z,15.30
2019-01-09T08:51:20.750Z,19.50
2019-01-09T08:52:20.758Z,19.90
2019-01-09T08:53:20.760Z,24.60
2019-01-09T08:54:20.721Z,13.70
2019-01-09T08:55:20.872Z,25.40
2019-01-09T08:56:20.702Z,19.30
2019-01-09T08:57:20.693Z,17.70
2019-01-09T08:58:20.703Z,17.60
2019-01-09T08:59:20.671Z,20.00
2019-01-09T09:00:20.668Z,20.50
2019-01-09T09:01:20.665Z,18.80
2019-01-09T09:02:20.656Z,26.80
2019-01-09T09:03:20.666Z,29.10
2019-01-09T09:04:20.617Z,21.70
2019-01-09T09:05:20.613Z,22.50
2019-01-09T09:06:20.595Z,17.70
2019-01-09T09:07:20.616Z,19.40
2019-01-09T09:08:20.597Z,21.10
2019-01-09T09:09:20.654Z,22.40
2019-01-09T09:10:20.559Z,23.20
2019-01-09T09:11:20.542Z,19.30
2019-01-09T09:12:20.529Z,15.30
2019-01-09T09:13:20.546Z,26.60
2019-01-09T09:14:20.506Z,32.40
2019-01-09T09:15:20.552Z,22.50
2019-01-09T09:16:20.485Z,21.80
2019-01-09T09:17:20.500Z,21.80
2019-01-09T09:18:20.513Z,23.00
2019-01-09T09:19:20.455Z,17.50
2019-01-09T09:20:20.456Z,22.40
2019-01-09T09:21:20.435Z,22.60
2019-01-09T09:22:20.474Z,15.50
2019-01-09T09:23:20.414Z,18.70
2019-01-09T09:24:20.422Z,19.20
2019-01-09T09:25:20.388Z,20.80
2019-01-09T09:26:20.396Z,18.20
2019-01-09T09:27:20.375Z,27.10
2019-01-09T09:28:20.500Z,16.50
2019-01-09T09:29:20.378Z,19.50
2019-01-09T09:30:20.336Z,19.60
2019-01-09T09:31:20.326Z,21.60
2019-01-09T09:32:20.313Z,18.40
2019-01-09T09:33:20.305Z,21.70
2019-01-09T09:34:20.305Z,17.50
2019-01-09T09:35:20.395Z,17.90
2019-01-09T09:36:20.284Z,27.00
2019-01-09T09:37:20.268Z,23.70
2019-01-09T09:38:20.985Z,19.70
2019-01-09T09:39:20.269Z,20.90
2019-01-09T09:40:20.271Z,17.90
2019-01-09T09:41:20.259Z,22.50
2019-01-09T09:42:20.211Z,17.80
2019-01-09T09:43:20.202Z,19.20
2019-01-09T09:44:20.242Z,21.10
2019-01-09T09:45:20.253Z,18.70
2019-01-09T09:46:20.164Z,15.10
2019-01-09T09:47:20.242Z,15.10
2019-01-09T09:48:20.212Z,23.80
2019-01-09T09:49:20.167Z,21.60
2019-01-09T09:50:20.403Z,22.50
2019-01-09T09:51:20.369Z,23.10
2019-01-09T09:52:20.267Z,17.90
2019-01-09T09:53:20.253Z,16.40
2019-01-09T09:54:20.216Z,16.00
2019-01-09T09:55:20.104Z,15.80
2019-01-09T09:56:20.120Z,17.60
2019-01-09T09:57:20.054Z,17.30
2019-01-09T09:58:20.034Z,17.00
2019-01-09T09:59:20.031Z,18.10
2019-01-09T10:00:20.182Z,22.50
2019-01-09T10:01:20.094Z,14.10
2019-01-09T10:02:20.004Z,18.90
2019-01-09T10:03:20.083Z,16.60
2019-01-09T10:04:19.988Z,17.90
2019-01-09T10:05:19.980Z,15.50
2019-01-09T10:06:19.977Z,16.10
2019-01-09T10:07:19.949Z,16.80
2019-01-09T10:08:19.934Z,17.80
2019-01-09T10:09:19.948Z,15.60
2019-01-09T10:10:20.020Z,16.70
2019-01-09T10:11:19.948Z,16.40
2019-01-09T10:12:19.936Z,19.00
2019-01-09T10:13:19.888Z,19.90
2019-01-09T10:14:19.875Z,22.90
2019-01-09T10:15:19.862Z,23.80
2019-01-09T10:16:19.930Z,19.10
2019-01-09T10:17:19.857Z,15.10
2019-01-09T10:18:19.838Z,11.70
2019-01-09T10:19:19.890Z,21.90
2019-01-09T10:20:19.808Z,15.90
2019-01-09T10:21:20.138Z,17.10
2019-01-09T10:22:19.824Z,15.60
2019-01-09T10:23:19.794Z,19.00
2019-01-09T10:24:19.815Z,15.40
2019-01-09T10:25:20.075Z,19.90
2019-01-09T10:26:19.739Z,12.40
2019-01-09T10:27:19.934Z,15.70
2019-01-09T10:28:19.730Z,12.90
2019-01-09T10:29:20.102Z,14.90
2019-01-09T10:30:19.709Z,12.00
2019-01-09T10:31:19.786Z,15.00
2019-01-09T10:32:19.689Z,17.80
2019-01-09T10:33:19.701Z,21.40
2019-01-09T10:34:19.703Z,20.70
2019-01-09T10:35:19.666Z,14.30
2019-01-09T10:36:19.653Z,16.70
2019-01-09T10:37:19.959Z,15.90
2019-01-09T10:38:19.657Z,14.00
2019-01-09T10:39:19.737Z,14.90
2019-01-09T10:40:19.648Z,16.40
2019-01-09T10:41:19.589Z,16.50
2019-01-09T10:42:19.575Z,16.70
2019-01-09T10:43:19.685Z,10.30
2019-01-09T10:44:19.567Z,18.30
2019-01-09T10:45:19.567Z,16.20
2019-01-09T10:46:19.530Z,14.40
2019-01-09T10:47:19.532Z,14.10
2019-01-09T10:48:20.250Z,16.20
2019-01-09T10:49:19.494Z,11.30
2019-01-09T10:50:19.484Z,15.30
2019-01-09T10:51:19.479Z,13.60
2019-01-09T10:52:19.523Z,15.30
2019-01-09T10:53:19.513Z,13.40
2019-01-09T10:54:19.444Z,13.10
2019-01-09T10:55:19.439Z,20.30
2019-01-09T10:56:19.424Z,14.80
2019-01-09T10:57:19.413Z,13.90
2019-01-09T10:58:19.450Z,12.60
2019-01-09T10:59:19.401Z,15.00
2019-01-09T11:00:19.514Z,18.40
2019-01-09T11:01:19.415Z,17.90
2019-01-09T11:02:19.375Z,14.00
2019-01-09T11:03:19.431Z,18.00
2019-01-09T11:04:19.336Z,16.30
2019-01-09T11:05:19.333Z,14.10
2019-01-09T11:06:19.327Z,13.20
2019-01-09T11:07:19.315Z,14.10
2019-01-09T11:08:19.330Z,14.10
2019-01-09T11:09:19.342Z,14.90
2019-01-09T11:10:19.280Z,12.80
2019-01-09T11:11:19.261Z,16.00
2019-01-09T11:12:19.260Z,16.20
2019-01-09T11:13:19.278Z,14.80
2019-01-09T11:14:19.231Z,14.90
2019-01-09T11:15:19.272Z,15.80
2019-01-09T11:16:19.213Z,11.80
2019-01-09T11:17:19.259Z,16.10
2019-01-09T11:18:19.244Z,14.80
2019-01-09T11:19:19.213Z,14.50
2019-01-09T11:20:19.288Z,9.70
2019-01-09T11:21:19.314Z,12.10
2019-01-09T11:22:19.152Z,10.60
2019-01-09T11:23:19.160Z,12.20
2019-01-09T11:24:19.164Z,17.10
2019-01-09T11:25:19.215Z,11.80
2019-01-09T11:26:19.106Z,13.80
2019-01-09T11:27:19.103Z,11.40
2019-01-09T11:28:19.086Z,18.40
2019-01-09T11:29:19.187Z,16.10
2019-01-09T11:30:19.089Z,14.90
2019-01-09T11:31:19.071Z,14.60
2019-01-09T11:32:19.172Z,14.10
2019-01-09T11:33:19.047Z,13.10
2019-01-09T11:34:19.026Z,13.70
2019-01-09T11:35:19.099Z,12.60
2019-01-09T11:36:18.997Z,12.80
2019-01-09T11:37:18.992Z,15.60
2019-01-09T11:38:18.995Z,14.50
2019-01-09T11:39:18.963Z,15.30
2019-01-09T11:40:18.957Z,10.40
2019-01-09T11:41:19.004Z,13.60
2019-01-09T11:42:18.962Z,17.70
2019-01-09T11:43:18.923Z,16.00
2019-01-09T11:44:18.915Z,13.80
2019-01-09T11:45:18.899Z,16.00
2019-01-09T11:46:18.944Z,16.50
2019-01-09T11:47:18.883Z,17.00
2019-01-09T11:48:18.884Z,16.50
2019-01-09T11:49:18.857Z,17.80
2019-01-09T11:50:18.848Z,17.30
2019-01-09T11:51:18.875Z,19.60
2019-01-09T11:52:18.827Z,15.80
2019-01-09T11:53:18.823Z,13.70
2019-01-09T11:54:18.805Z,16.10
2019-01-09T11:55:18.796Z,17.50
2019-01-09T11:56:18.812Z,18.40
2019-01-09T11:57:18.810Z,16.40
2019-01-09T11:58:18.783Z,16.10
2019-01-09T11:59:18.756Z,13.50
2019-01-09T12:00:18.745Z,17.30
2019-01-09T12:01:18.831Z,13.50
2019-01-09T12:02:22.189Z,12.40
2019-01-09T12:03:18.711Z,12.90
2019-01-09T12:04:18.700Z,13.90
2019-01-09T12:05:18.699Z,12.20
2019-01-09T12:06:18.680Z,16.20
2019-01-09T12:07:18.700Z,19.70
2019-01-09T12:08:18.664Z,13.00
2019-01-09T12:09:18.650Z,19.40
2019-01-09T12:10:18.637Z,13.30
2019-01-09T12:11:18.635Z,11.20
2019-01-09T12:12:18.708Z,12.90
2019-01-09T12:13:18.630Z,13.20
2019-01-09T12:14:18.600Z,12.30
2019-01-09T12:15:18.608Z,8.70
2019-01-09T12:16:18.578Z,7.10
2019-01-09T12:17:18.577Z,14.70
2019-01-09T12:18:18.620Z,12.30
2019-01-09T12:19:18.544Z,10.50
2019-01-09T12:20:18.531Z,11.50
2019-01-09T12:21:18.562Z,8.20
2019-01-09T12:22:18.514Z,9.70
2019-01-09T12:23:18.523Z,7.80
2019-01-09T12:24:18.488Z,7.00
2019-01-09T12:25:18.479Z,9.30
2019-01-09T12:26:18.503Z,11.80
2019-01-09T12:27:18.457Z,15.00
2019-01-09T12:28:18.470Z,10.80
2019-01-09T12:29:18.437Z,9.20
2019-01-09T12:30:18.425Z,6.50
2019-01-09T12:31:18.418Z,10.70
2019-01-09T12:32:18.428Z,6.30
2019-01-09T12:33:18.424Z,9.50
2019-01-09T12:34:18.382Z,10.80
2019-01-09T12:35:18.373Z,8.70
2019-01-09T12:36:18.369Z,5.30
2019-01-09T12:37:18.371Z,5.90
2019-01-09T12:38:18.343Z,7.70
2019-01-09T12:39:18.357Z,5.30
2019-01-09T12:40:18.321Z,4.80
2019-01-09T12:41:18.372Z,7.50
2019-01-09T12:42:18.344Z,10.00
2019-01-09T12:43:18.288Z,8.10
2019-01-09T12:44:18.323Z,10.40
2019-01-09T12:45:18.272Z,11.80
2019-01-09T12:46:18.266Z,7.80
2019-01-09T12:47:18.247Z,4.50
2019-01-09T12:48:18.241Z,5.60
2019-01-09T12:49:18.457Z,6.50
2019-01-09T12:50:18.263Z,7.90
2019-01-09T12:51:18.387Z,5.60
2019-01-09T12:52:18.213Z,6.60
2019-01-09T12:53:18.223Z,5.80
2019-01-09T12:54:18.179Z,10.40
2019-01-09T12:55:18.455Z,6.20
2019-01-09T12:56:18.186Z,6.20
2019-01-09T12:57:18.172Z,6.70
2019-01-09T12:58:18.136Z,8.70
2019-01-09T12:59:21.770Z,9.40
2019-01-09T13:00:18.122Z,7.60
2019-01-09T13:01:18.126Z,8.80
2019-01-09T13:02:18.097Z,7.90
2019-01-09T13:03:18.080Z,6.30
2019-01-09T13:04:18.191Z,7.90
2019-01-09T13:05:18.060Z,6.80
2019-01-09T13:06:18.067Z,5.80
2019-01-09T13:07:18.074Z,9.50
2019-01-09T13:08:18.026Z,7.40
2019-01-09T13:09:22.255Z,8.90
2019-01-09T13:10:18.005Z,6.50
2019-01-09T13:11:18.017Z,6.30
2019-01-09T13:12:18.041Z,8.00
2019-01-09T13:13:18.286Z,6.30
2019-01-09T13:14:17.974Z,6.50
2019-01-09T13:15:17.966Z,5.20
2019-01-09T13:16:17.973Z,7.90
2019-01-09T13:17:17.927Z,6.90
2019-01-09T13:18:17.941Z,5.10
2019-01-09T13:19:18.050Z,9.30
2019-01-09T13:20:18.174Z,8.30
2019-01-09T13:21:18.342Z,8.00
2019-01-09T13:22:17.961Z,7.30
2019-01-09T13:23:17.866Z,9.30
2019-01-09T13:24:17.872Z,6.60
2019-01-09T13:25:17.840Z,10.90
2019-01-09T13:26:18.146Z,9.50
2019-01-09T13:27:17.840Z,8.30
2019-01-09T13:28:17.820Z,6.50
2019-01-09T13:29:17.912Z,6.10
2019-01-09T13:30:17.790Z,10.30
2019-01-09T13:31:17.817Z,9.60
2019-01-09T13:32:17.819Z,7.10
2019-01-09T13:33:17.940Z,9.80
2019-01-09T13:34:17.757Z,5.80
2019-01-09T13:35:17.993Z,7.60
2019-01-09T13:36:17.974Z,6.10
2019-01-09T13:37:17.717Z,5.60
2019-01-09T13:38:17.731Z,5.60
2019-01-09T13:39:17.936Z,5.00
2019-01-09T13:40:17.720Z,7.00
2019-01-09T13:41:17.717Z,7.00
2019-01-09T13:42:17.669Z,7.20
2019-01-09T13:43:17.678Z,7.60
2019-01-09T13:44:17.642Z,6.20
2019-01-09T13:45:17.626Z,4.70
2019-01-09T13:46:17.649Z,10.40
2019-01-09T13:47:17.766Z,5.40
2019-01-09T13:48:17.855Z,9.50
2019-01-09T13:49:17.640Z,4.40
2019-01-09T13:50:17.578Z,5.90
2019-01-09T13:51:17.712Z,8.20
2019-01-09T13:52:17.577Z,7.90
2019-01-09T13:53:17.605Z,9.30
2019-01-09T13:54:17.529Z,5.50
2019-01-09T13:55:17.521Z,2.50
2019-01-09T13:56:17.509Z,8.60
2019-01-09T13:57:17.501Z,5.00
2019-01-09T13:58:17.531Z,4.00
2019-01-09T13:59:17.481Z,4.90
2019-01-09T14:00:17.705Z,4.80
2019-01-09T14:01:17.461Z,8.10
2019-01-09T14:02:17.455Z,5.40
2019-01-09T14:03:17.441Z,11.40
2019-01-09T14:04:17.712Z,7.50
2019-01-09T14:05:17.463Z,6.50
2019-01-09T14:06:17.462Z,6.60
2019-01-09T14:07:17.406Z,4.50
2019-01-09T14:08:17.424Z,5.00
2019-01-09T14:09:17.464Z,7.60
2019-01-09T14:10:17.394Z,7.40
2019-01-09T14:11:17.384Z,6.70
2019-01-09T14:12:17.401Z,8.70
2019-01-09T14:13:17.334Z,8.30
2019-01-09T14:14:17.316Z,6.60
2019-01-09T14:15:17.459Z,7.00
2019-01-09T14:16:17.326Z,10.50
2019-01-09T14:17:17.505Z,6.10
2019-01-09T14:18:17.348Z,8.40
2019-01-09T14:19:17.269Z,6.70
2019-01-09T14:20:17.364Z,8.10
2019-01-09T14:21:17.279Z,8.70
2019-01-09T14:22:17.447Z,9.20
2019-01-09T14:23:17.330Z,6.70
2019-01-09T14:24:17.286Z,5.10
2019-01-09T14:25:17.205Z,6.30
2019-01-09T14:26:17.226Z,5.30
2019-01-09T14:27:17.178Z,5.10
2019-01-09T14:28:17.174Z,5.50
2019-01-09T14:29:17.263Z,7.40
2019-01-09T14:30:17.160Z,10.80
2019-01-09T14:31:17.166Z,7.40
2019-01-09T14:32:17.435Z,6.10
2019-01-09T14:33:17.197Z,7.10
2019-01-09T14:34:17.106Z,4.60
2019-01-09T14:35:17.232Z,5.40
2019-01-09T14:36:17.391Z,8.60
2019-01-09T14:37:17.090Z,7.70
2019-01-09T14:38:17.224Z,7.80
2019-01-09T14:39:17.057Z,6.10
2019-01-09T14:40:17.170Z,9.40
2019-01-09T14:41:17.063Z,7.20
2019-01-09T14:42:17.046Z,6.30
2019-01-09T14:43:17.008Z,5.20
2019-01-09T14:44:17.115Z,10.50
2019-01-09T14:45:16.996Z,6.60
2019-01-09T14:46:17.073Z,7.80
2019-01-09T14:47:17.000Z,8.90
2019-01-09T14:48:16.993Z,4.20
2019-01-09T14:49:16.949Z,6.40
2019-01-09T14:50:16.937Z,7.20
2019-01-09T14:51:16.943Z,6.60
2019-01-09T14:52:17.190Z,8.30
2019-01-09T14:53:16.979Z,5.00
2019-01-09T14:54:16.906Z,5.50
2019-01-09T14:55:16.884Z,7.90
2019-01-09T14:56:17.098Z,6.40
2019-01-09T14:57:16.868Z,9.00
2019-01-09T14:58:16.893Z,7.10
2019-01-09T14:59:16.871Z,9.00
2019-01-09T15:00:16.832Z,7.40
2019-01-09T15:01:16.822Z,7.50
2019-01-09T15:02:17.050Z,12.10
2019-01-09T15:03:16.886Z,5.20
2019-01-09T15:04:17.646Z,8.20
2019-01-09T15:05:17.037Z,7.50
2019-01-09T15:06:16.771Z,9.70
2019-01-09T15:07:16.767Z,7.70
2019-01-09T15:08:16.771Z,7.60
2019-01-09T15:09:16.814Z,4.80
2019-01-09T15:10:16.729Z,5.70
2019-01-09T15:11:16.717Z,7.10
2019-01-09T15:12:16.787Z,8.20
2019-01-09T15:13:16.788Z,7.80
2019-01-09T15:14:16.694Z,5.60
2019-01-09T15:15:16.694Z,7.00
2019-01-09T15:16:16.660Z,9.80
2019-01-09T15:17:16.659Z,8.90
2019-01-09T15:18:16.647Z,4.40
2019-01-09T15:19:16.655Z,6.90
2019-01-09T15:20:16.623Z,8.70
2019-01-09T15:21:16.726Z,4.90
2019-01-09T15:22:16.654Z,7.50
2019-01-09T15:23:16.598Z,8.10
2019-01-09T15:24:16.701Z,8.20
2019-01-09T15:25:16.575Z,6.80
2019-01-09T15:26:16.645Z,5.80
2019-01-09T15:27:16.552Z,5.90
2019-01-09T15:28:16.642Z,7.90
2019-01-09T15:29:16.533Z,8.10
2019-01-09T15:30:16.595Z,6.70
2019-01-09T15:31:16.525Z,6.80
2019-01-09T15:32:16.571Z,5.50
2019-01-09T15:33:16.503Z,3.30
2019-01-09T15:34:16.549Z,5.80
2019-01-09T15:35:16.467Z,8.10
2019-01-09T15:36:16.479Z,7.50
2019-01-09T15:37:16.453Z,9.00
2019-01-09T15:38:16.432Z,7.90
2019-01-09T15:39:16.424Z,5.80
2019-01-09T15:40:16.409Z,5.00
2019-01-09T15:41:16.475Z,9.70
2019-01-09T15:42:16.400Z,5.60
2019-01-09T15:43:16.386Z,10.20
2019-01-09T15:44:17.530Z,7.80
2019-01-09T15:45:16.354Z,5.20
2019-01-09T15:46:16.419Z,5.70
2019-01-09T15:47:16.391Z,6.40
2019-01-09T15:48:16.354Z,9.80
2019-01-09T15:49:16.317Z,5.40
2019-01-09T15:50:16.306Z,7.80
2019-01-09T15:51:16.423Z,8.60
2019-01-09T15:52:16.331Z,7.70
2019-01-09T15:53:16.298Z,5.50
2019-01-09T15:54:16.364Z,13.40
2019-01-09T15:55:16.253Z,7.10
2019-01-09T15:56:16.252Z,4.80
2019-01-09T15:57:16.244Z,8.70
2019-01-09T15:58:16.270Z,9.40
2019-01-09T15:59:16.211Z,7.00
2019-01-09T16:00:16.205Z,6.00
2019-01-09T16:01:16.279Z,7.90
2019-01-09T16:02:16.180Z,9.00
2019-01-09T16:03:16.230Z,8.40
2019-01-09T16:04:16.165Z,9.20
2019-01-09T16:05:16.159Z,8.00
2019-01-09T16:06:16.146Z,7.50
2019-01-09T16:07:16.126Z,6.90
2019-01-09T16:08:16.139Z,7.90
2019-01-09T16:09:16.135Z,7.80
2019-01-09T16:10:16.112Z,8.00
2019-01-09T16:11:16.088Z,5.80
2019-01-09T16:12:16.073Z,7.60
2019-01-09T16:13:16.133Z,8.10
2019-01-09T16:14:16.068Z,5.80
2019-01-09T16:15:16.038Z,8.40
2019-01-09T16:16:16.034Z,5.70
2019-01-09T16:17:16.018Z,6.70
2019-01-09T16:18:16.024Z,8.10
2019-01-09T16:19:16.077Z,6.60
2019-01-09T16:20:16.850Z,5.90
2019-01-09T16:21:15.984Z,7.40
2019-01-09T16:22:16.010Z,4.60
2019-01-09T16:23:15.954Z,4.60
2019-01-09T16:24:15.994Z,5.20
2019-01-09T16:25:15.991Z,5.00
2019-01-09T16:26:15.926Z,4.90
2019-01-09T16:27:15.946Z,7.20
2019-01-09T16:28:15.903Z,10.20
2019-01-09T16:29:15.916Z,7.10
2019-01-09T16:30:15.945Z,11.80
2019-01-09T16:31:15.872Z,6.90
2019-01-09T16:32:15.857Z,6.90
2019-01-09T16:33:15.917Z,6.60
2019-01-09T16:34:15.841Z,5.60
2019-01-09T16:35:15.842Z,8.30
2019-01-09T16:36:15.920Z,5.80
2019-01-09T16:37:15.807Z,5.20
2019-01-09T16:38:15.796Z,6.40
2019-01-09T16:39:17.414Z,6.60
2019-01-09T16:40:23.207Z,6.90
2019-01-09T16:41:16.952Z,3.00
2019-01-09T16:42:15.760Z,10.80
2019-01-09T16:43:15.756Z,10.70
2019-01-09T16:44:15.772Z,6.60
2019-01-09T16:45:15.726Z,4.60
2019-01-09T16:46:15.774Z,4.30
2019-01-09T16:47:15.738Z,5.90
2019-01-09T16:48:15.697Z,4.10
2019-01-09T16:49:15.696Z,4.10
2019-01-09T16:50:15.978Z,6.50
2019-01-09T16:51:15.661Z,7.70
2019-01-09T16:52:15.669Z,3.80
2019-01-09T16:53:15.715Z,7.20
2019-01-09T16:54:15.627Z,10.50
2019-01-09T16:55:15.626Z,9.50
2019-01-09T16:56:15.621Z,5.40
2019-01-09T16:57:15.699Z,8.70
2019-01-09T16:58:15.602Z,5.20
2019-01-09T16:59:15.593Z,9.60
2019-01-09T17:00:15.564Z,7.30
2019-01-09T17:01:15.557Z,7.00
2019-01-09T17:02:15.722Z,5.20
2019-01-09T17:03:15.568Z,7.50
2019-01-09T17:04:15.523Z,6.80
2019-01-09T17:05:15.517Z,6.40
2019-01-09T17:06:15.502Z,5.80
2019-01-09T17:07:15.501Z,7.80
2019-01-09T17:08:15.559Z,8.90
2019-01-09T17:09:15.498Z,5.70
2019-01-09T17:10:15.472Z,6.60
2019-01-09T17:11:15.489Z,8.30
2019-01-09T17:12:15.577Z,6.70
2019-01-09T17:13:15.447Z,6.40
2019-01-09T17:14:15.446Z,8.90
2019-01-09T17:15:15.502Z,7.20
2019-01-09T17:16:15.422Z,7.70
2019-01-09T17:17:15.388Z,6.00
2019-01-09T17:18:15.374Z,6.90
2019-01-09T17:19:15.398Z,5.00
2019-01-09T17:20:15.488Z,7.60
2019-01-09T17:21:15.352Z,8.20
2019-01-09T17:22:15.345Z,6.20
2019-01-09T17:23:15.344Z,7.50
2019-01-09T17:24:15.366Z,8.60
2019-01-09T17:25:15.336Z,7.10
2019-01-09T17:26:15.353Z,11.20
2019-01-09T17:27:15.298Z,8.70
2019-01-09T17:28:15.272Z,8.10
2019-01-09T17:29:15.329Z,8.30
2019-01-09T17:30:15.282Z,7.50
2019-01-09T17:31:15.244Z,7.30
2019-01-09T17:32:15.254Z,8.70
2019-01-09T17:33:15.213Z,5.20
2019-01-09T17:34:15.212Z,7.20
2019-01-09T17:35:15.192Z,6.90
2019-01-09T17:36:15.208Z,8.20
2019-01-09T17:37:15.212Z,5.20
2019-01-09T17:38:16.174Z,7.30
2019-01-09T17:39:15.242Z,5.10
2019-01-09T17:40:15.153Z,8.90
2019-01-09T17:41:15.161Z,9.10
2019-01-09T17:42:15.137Z,7.30
2019-01-09T17:43:15.200Z,12.80
2019-01-09T17:44:15.175Z,5.30
2019-01-09T17:45:15.088Z,8.20
2019-01-09T17:46:15.109Z,10.10
2019-01-09T17:47:15.065Z,12.10
2019-01-09T17:48:15.097Z,5.50
2019-01-09T17:49:15.047Z,10.10
2019-01-09T17:50:15.107Z,7.90
2019-01-09T17:51:15.036Z,6.90
2019-01-09T17:52:15.048Z,8.40
2019-01-09T17:53:15.011Z,7.30
2019-01-09T17:54:15.039Z,8.70
2019-01-09T17:55:14.992Z,8.60
2019-01-09T17:56:14.973Z,8.20
2019-01-09T17:57:14.965Z,9.50
2019-01-09T17:58:15.087Z,7.20
2019-01-09T17:59:14.943Z,9.30
2019-01-09T18:00:14.932Z,10.70
2019-01-09T18:01:14.987Z,4.60
2019-01-09T18:02:14.911Z,12.00
2019-01-09T18:03:14.927Z,8.50
2019-01-09T18:04:14.894Z,8.20
2019-01-09T18:05:15.065Z,6.80
2019-01-09T18:06:14.870Z,12.80
2019-01-09T18:07:14.854Z,8.40
2019-01-09T18:08:14.997Z,6.00
2019-01-09T18:09:14.849Z,10.20
2019-01-09T18:10:14.944Z,8.90
2019-01-09T18:11:14.830Z,6.70
2019-01-09T18:12:14.848Z,7.40
2019-01-09T18:13:14.822Z,11.30
2019-01-09T18:14:14.901Z,12.00
2019-01-09T18:15:14.767Z,7.90
2019-01-09T18:16:14.814Z,7.80
2019-01-09T18:17:14.871Z,8.00
2019-01-09T18:18:14.756Z,6.00
2019-01-09T18:19:14.770Z,11.60
2019-01-09T18:20:14.727Z,7.60
2019-01-09T18:21:14.702Z,5.40
2019-01-09T18:22:14.741Z,6.60
2019-01-09T18:23:14.689Z,10.70
2019-01-09T18:24:14.672Z,6.60
2019-01-09T18:25:14.723Z,8.20
2019-01-09T18:26:14.661Z,8.80
2019-01-09T18:27:14.638Z,5.90
2019-01-09T18:28:14.667Z,9.60
2019-01-09T18:29:14.616Z,6.70
2019-01-09T18:30:14.670Z,5.40
2019-01-09T18:31:14.624Z,5.90
2019-01-09T18:32:14.586Z,11.80
2019-01-09T18:33:14.615Z,8.80
2019-01-09T18:34:14.563Z,15.30
2019-01-09T18:35:14.561Z,14.80
2019-01-09T18:36:14.635Z,11.50
2019-01-09T18:37:14.576Z,7.30
2019-01-09T18:38:16.270Z,5.80
2019-01-09T18:39:14.532Z,8.10
2019-01-09T18:40:14.596Z,10.80
2019-01-09T18:41:14.518Z,6.00
2019-01-09T18:42:14.477Z,6.70
2019-01-09T18:43:14.554Z,8.10
2019-01-09T18:44:14.457Z,9.60
2019-01-09T18:45:14.476Z,10.00
2019-01-09T18:46:14.452Z,6.40
2019-01-09T18:47:14.554Z,8.10
2019-01-09T18:48:14.412Z,6.80
2019-01-09T18:49:14.414Z,14.10
2019-01-09T18:50:14.398Z,9.20
2019-01-09T18:51:14.385Z,8.60
2019-01-09T18:52:14.430Z,7.10
2019-01-09T18:53:14.382Z,8.50
2019-01-09T18:54:14.387Z,9.80
2019-01-09T18:55:14.348Z,10.70
2019-01-09T18:56:14.331Z,8.70
2019-01-09T18:57:14.392Z,10.00
2019-01-09T18:58:14.327Z,8.50
2019-01-09T18:59:14.386Z,7.50
2019-01-09T19:00:14.395Z,9.00
2019-01-09T19:01:14.277Z,9.80
2019-01-09T19:02:14.271Z,9.00
2019-01-09T19:03:14.406Z,9.50
2019-01-09T19:04:14.243Z,7.60
2019-01-09T19:05:14.231Z,9.60
2019-01-09T19:06:14.295Z,8.00
2019-01-09T19:07:14.212Z,12.10
2019-01-09T19:08:14.237Z,8.20
2019-01-09T19:09:14.197Z,12.20
2019-01-09T19:10:14.176Z,11.20
2019-01-09T19:11:14.177Z,7.40
2019-01-09T19:12:14.223Z,8.00
2019-01-09T19:13:14.161Z,5.80
2019-01-09T19:14:14.214Z,8.90
2019-01-09T19:15:14.126Z,8.60
2019-01-09T19:16:14.124Z,8.40
2019-01-09T19:17:14.110Z,11.50
2019-01-09T19:18:14.147Z,10.30
2019-01-09T19:19:14.106Z,9.50
2019-01-09T19:20:14.069Z,6.90
2019-01-09T19:21:14.115Z,10.40
2019-01-09T19:22:14.078Z,8.00
2019-01-09T19:23:14.036Z,7.00
2019-01-09T19:24:14.026Z,10.40
2019-01-09T19:25:14.096Z,9.60
2019-01-09T19:26:14.011Z,8.50
2019-01-09T19:27:14.007Z,11.00
2019-01-09T19:28:14.084Z,6.40
2019-01-09T19:29:13.982Z,8.30
2019-01-09T19:30:14.069Z,10.80
2019-01-09T19:31:13.952Z,12.10
2019-01-09T19:32:13.964Z,9.40
2019-01-09T19:33:13.942Z,9.70
2019-01-09T19:34:13.929Z,10.70
2019-01-09T19:35:13.954Z,10.70
2019-01-09T19:36:13.940Z,8.30
2019-01-09T19:37:13.887Z,10.10
2019-01-09T19:38:13.877Z,9.50
2019-01-09T19:39:13.880Z,7.00
2019-01-09T19:40:13.873Z,9.60
2019-01-09T19:41:17.368Z,6.40
2019-01-09T19:42:13.836Z,8.10
2019-01-09T19:43:13.827Z,7.00
2019-01-09T19:44:13.821Z,8.60
2019-01-09T19:45:13.809Z,9.20
2019-01-09T19:46:13.838Z,5.10
2019-01-09T19:47:13.809Z,8.40
2019-01-09T19:48:13.768Z,10.60
2019-01-09T19:49:13.768Z,8.80
2019-01-09T19:50:13.757Z,8.80
2019-01-09T19:51:17.753Z,12.30
2019-01-09T19:52:13.769Z,9.00
2019-01-09T19:53:13.868Z,7.60
2019-01-09T19:54:13.703Z,7.00
2019-01-09T19:55:13.729Z,9.70
2019-01-09T19:56:13.684Z,8.50
2019-01-09T19:57:13.722Z,5.10
2019-01-09T19:58:13.979Z,10.20
2019-01-09T19:59:13.650Z,6.60
2019-01-09T20:00:13.639Z,5.90
2019-01-09T20:01:13.693Z,6.20
2019-01-09T20:02:13.670Z,11.50
2019-01-09T20:03:13.702Z,6.50
2019-01-09T20:04:13.609Z,6.80
2019-01-09T20:05:13.585Z,6.50
2019-01-09T20:06:13.583Z,7.80
2019-01-09T20:07:13.587Z,7.10
2019-01-09T20:08:13.587Z,7.80
2019-01-09T20:09:13.547Z,9.00
2019-01-09T20:10:13.635Z,5.20
2019-01-09T20:11:13.599Z,4.40
2019-01-09T20:12:13.510Z,5.40
2019-01-09T20:13:13.520Z,7.50
2019-01-09T20:14:13.555Z,8.90
2019-01-09T20:15:13.522Z,10.50
2019-01-09T20:16:13.485Z,8.70
2019-01-09T20:17:13.474Z,8.20
2019-01-09T20:18:13.562Z,6.20
2019-01-09T20:19:13.484Z,5.90
2019-01-09T20:20:13.513Z,8.10
2019-01-09T20:21:13.485Z,8.80
2019-01-09T20:22:13.579Z,7.40
2019-01-09T20:23:13.526Z,7.90
2019-01-09T20:24:13.384Z,7.20
2019-01-09T20:25:13.477Z,7.70
2019-01-09T20:26:13.390Z,6.90
2019-01-09T20:27:13.473Z,5.30
2019-01-09T20:28:13.338Z,6.70
2019-01-09T20:29:13.397Z,7.10
2019-01-09T20:30:13.357Z,6.00
2019-01-09T20:31:13.307Z,10.70
2019-01-09T20:32:13.330Z,6.20
2019-01-09T20:33:13.286Z,4.90
2019-01-09T20:34:13.320Z,7.30
2019-01-09T20:35:13.301Z,7.30
2019-01-09T20:36:14.356Z,8.60
2019-01-09T20:37:13.343Z,3.90
2019-01-09T20:38:13.259Z,7.30
2019-01-09T20:39:13.223Z,9.00
2019-01-09T20:40:13.244Z,9.60
2019-01-09T20:41:13.293Z,7.10
2019-01-09T20:42:13.255Z,8.30
2019-01-09T20:43:13.193Z,7.20
2019-01-09T20:44:13.276Z,6.20
2019-01-09T20:45:13.211Z,5.10
2019-01-09T20:46:13.350Z,9.20
2019-01-09T20:47:13.157Z,11.00
2019-01-09T20:48:13.180Z,6.60
2019-01-09T20:49:13.158Z,5.30
2019-01-09T20:50:13.162Z,5.60
2019-01-09T20:51:13.127Z,6.00
2019-01-09T20:52:13.205Z,7.90
2019-01-09T20:53:13.120Z,7.80
2019-01-09T20:54:13.209Z,7.00
2019-01-09T20:55:13.135Z,6.40
2019-01-09T20:56:13.038Z,8.70
2019-01-09T20:57:13.150Z,7.80
2019-01-09T20:58:13.198Z,5.30
2019-01-09T20:59:13.081Z,7.00
2019-01-09T21:00:13.032Z,6.40
2019-01-09T21:01:12.983Z,9.20
2019-01-09T21:02:13.045Z,7.30
2019-01-09T21:03:12.999Z,6.20
2019-01-09T21:04:12.979Z,7.50
2019-01-09T21:05:13.029Z,5.00
2019-01-09T21:06:12.999Z,7.30
2019-01-09T21:07:12.975Z,6.40